Time;durP1;ratioP1;P1;durP2;ratioP2;P2;SDS_P1;SDS_P2;PMS_P1;PMS_P2;Temp;Humidity;BMP_temperature;BMP_pressure;BME280_temperature;BME280_humidity;BME280_pressure;Samples;Min_cycle;Max_cycle;Signal;HPM_P1;HPM_P2
2021/06/23 00:00:33;;;;;;;8.52;4.55;;;;;;;;;;10367959;28;20053;-84
2021/06/23 00:05:35;;;;;;;7.15;4.43;;;;;;;;;;10359001;28;20508;-84
2021/06/23 00:10:36;;;;;;;8.13;4.88;;;;;;;;;;10366985;28;20089;-84
2021/06/23 00:15:38;;;;;;;10.80;4.93;;;;;;;;;;10367946;28;20522;-84
2021/06/23 00:20:40;;;;;;;10.20;4.85;;;;;;;;;;10368318;28;20464;-84
2021/06/23 00:25:42;;;;;;;6.95;4.30;;;;;;;;;;10367579;28;20104;-84
2021/06/23 00:30:43;;;;;;;10.05;4.78;;;;;;;;;;10367620;28;20085;-84
2021/06/23 00:35:45;;;;;;;9.10;4.80;;;;;;;;;;10367537;28;20108;-84
2021/06/23 00:40:47;;;;;;;8.05;4.60;;;;;;;;;;10367828;28;20080;-84
2021/06/23 00:45:48;;;;;;;8.68;4.88;;;;;;;;;;10368728;28;20085;-84
2021/06/23 00:50:51;;;;;;;9.40;5.38;;;;;;;;;;10367422;28;20064;-84
2021/06/23 00:55:53;;;;;;;8.20;4.20;;;;;;;;;;10365489;28;20108;-84
2021/06/23 01:00:56;;;;;;;7.75;4.85;;;;;;;;;;10365461;28;20518;-84
2021/06/23 01:05:57;;;;;;;8.57;4.47;;;;;;;;;;10362961;28;20053;-84
2021/06/23 01:11:00;;;;;;;11.88;4.53;;;;;;;;;;10366428;28;20119;-84
2021/06/23 01:16:04;;;;;;;8.45;4.40;;;;;;;;;;10365010;28;20085;-84
2021/06/23 01:21:08;;;;;;;8.65;4.28;;;;;;;;;;10365741;28;20100;-84
2021/06/23 01:26:10;;;;;;;8.00;4.35;;;;;;;;;;10369900;28;20195;-83
2021/06/23 01:31:13;;;;;;;10.60;4.80;;;;;;;;;;10371083;28;20073;-84
2021/06/23 01:36:15;;;;;;;15.13;4.60;;;;;;;;;;10364687;28;20120;-84
2021/06/23 01:41:17;;;;;;;8.13;4.20;;;;;;;;;;10363945;28;20070;-84
2021/06/23 01:46:18;;;;;;;9.73;4.05;;;;;;;;;;10364292;28;20081;-83
2021/06/23 01:51:20;;;;;;;9.68;4.22;;;;;;;;;;10369661;28;20057;-84
2021/06/23 01:56:22;;;;;;;12.07;4.30;;;;;;;;;;10372764;28;20100;-83
2021/06/23 02:01:23;;;;;;;12.27;4.10;;;;;;;;;;10374219;28;20054;-83
2021/06/23 02:06:31;;;;;;;10.00;4.28;;;;;;;;;;10342527;28;20133;-83
2021/06/23 02:11:39;;;;;;;8.00;3.90;;;;;;;;;;10378218;28;20085;-84
2021/06/23 02:16:41;;;;;;;8.80;4.40;;;;;;;;;;10378790;28;20080;-84
2021/06/23 02:21:43;;;;;;;6.85;3.88;;;;;;;;;;10377931;28;20437;-83
2021/06/23 02:26:45;;;;;;;8.98;4.40;;;;;;;;;;10378344;28;20061;-83
2021/06/23 02:31:50;;;;;;;7.55;4.53;;;;;;;;;;10377405;28;20112;-83
2021/06/23 02:36:51;;;;;;;8.85;4.40;;;;;;;;;;10376715;28;20454;-83
2021/06/23 02:41:53;;;;;;;7.20;4.22;;;;;;;;;;10376648;28;20050;-83
2021/06/23 02:46:55;;;;;;;8.55;4.65;;;;;;;;;;10376482;28;20058;-83
2021/06/23 02:51:57;;;;;;;6.95;4.13;;;;;;;;;;10376051;28;20488;-83
2021/06/23 02:56:59;;;;;;;11.20;4.57;;;;;;;;;;10377138;28;20137;-83
2021/06/23 03:02:01;;;;;;;11.10;4.30;;;;;;;;;;10374899;28;20073;-83
2021/06/23 03:07:07;;;;;;;10.02;4.40;;;;;;;;;;10370816;28;20046;-83
2021/06/23 03:12:09;;;;;;;9.25;4.43;;;;;;;;;;10370937;28;20112;-83
2021/06/23 03:17:10;;;;;;;11.57;4.55;;;;;;;;;;10369950;28;20380;-83
2021/06/23 03:22:12;;;;;;;8.57;4.65;;;;;;;;;;10370452;28;20136;-83
2021/06/23 03:27:13;;;;;;;10.88;4.45;;;;;;;;;;10370659;28;20053;-83
2021/06/23 03:32:15;;;;;;;9.45;4.60;;;;;;;;;;10369888;28;20105;-83
2021/06/23 03:37:17;;;;;;;9.45;4.70;;;;;;;;;;10369083;28;20081;-83
2021/06/23 03:42:18;;;;;;;11.07;4.80;;;;;;;;;;10371397;28;20057;-83
2021/06/23 03:47:20;;;;;;;6.50;4.22;;;;;;;;;;10369111;28;20119;-83
2021/06/23 03:52:22;;;;;;;8.02;4.60;;;;;;;;;;10369821;28;20060;-83
2021/06/23 03:57:24;;;;;;;10.60;4.60;;;;;;;;;;10369525;28;20092;-83
2021/06/23 04:02:25;;;;;;;6.72;4.13;;;;;;;;;;10374197;28;20050;-83
2021/06/23 04:07:27;;;;;;;9.23;4.72;;;;;;;;;;10374782;28;20050;-83
2021/06/23 04:12:28;;;;;;;11.85;5.10;;;;;;;;;;10367826;28;20084;-83
2021/06/23 04:17:30;;;;;;;8.77;4.72;;;;;;;;;;10367209;28;20050;-83
2021/06/23 04:22:32;;;;;;;9.68;4.68;;;;;;;;;;10366715;28;20056;-83
2021/06/23 04:27:34;;;;;;;8.73;4.60;;;;;;;;;;10367829;28;20088;-83
2021/06/23 04:32:36;;;;;;;10.23;5.18;;;;;;;;;;10366586;28;20053;-83
2021/06/23 04:37:38;;;;;;;8.35;5.35;;;;;;;;;;10366974;28;20475;-83
2021/06/23 04:42:40;;;;;;;12.27;5.00;;;;;;;;;;10367213;28;20076;-83
2021/06/23 04:47:42;;;;;;;13.32;5.88;;;;;;;;;;10365515;28;20046;-83
2021/06/23 04:52:43;;;;;;;10.52;4.72;;;;;;;;;;10365949;28;20504;-83
2021/06/23 04:57:45;;;;;;;9.60;4.85;;;;;;;;;;10365532;28;20089;-83
2021/06/23 05:02:46;;;;;;;11.15;4.90;;;;;;;;;;10366422;28;20133;-83
2021/06/23 05:07:48;;;;;;;12.23;5.10;;;;;;;;;;10366882;28;20192;-83
2021/06/23 05:12:50;;;;;;;11.50;4.32;;;;;;;;;;10366950;28;20073;-83
2021/06/23 05:17:51;;;;;;;12.98;5.10;;;;;;;;;;10365751;28;20527;-83
2021/06/23 05:22:53;;;;;;;10.35;4.47;;;;;;;;;;10366375;28;20507;-83
2021/06/23 05:27:55;;;;;;;9.68;4.60;;;;;;;;;;10364688;28;20077;-83
2021/06/23 05:32:56;;;;;;;11.32;4.82;;;;;;;;;;10366174;28;20054;-84
2021/06/23 05:37:58;;;;;;;11.23;4.60;;;;;;;;;;10365704;28;20114;-83
2021/06/23 05:42:59;;;;;;;10.70;4.50;;;;;;;;;;10366063;28;20132;-83
2021/06/23 05:48:01;;;;;;;10.02;4.32;;;;;;;;;;10364450;28;20054;-83
2021/06/23 05:53:02;;;;;;;11.60;4.18;;;;;;;;;;10365509;28;20124;-83
2021/06/23 05:58:04;;;;;;;8.50;4.22;;;;;;;;;;10365477;28;20104;-83
2021/06/23 06:03:06;;;;;;;11.90;4.38;;;;;;;;;;10364600;28;20578;-83
2021/06/23 06:08:08;;;;;;;12.43;3.88;;;;;;;;;;10363978;28;20073;-83
2021/06/23 06:13:09;;;;;;;11.43;3.78;;;;;;;;;;10365042;28;20057;-84
2021/06/23 06:18:11;;;;;;;9.93;4.00;;;;;;;;;;10365205;28;20050;-84
2021/06/23 06:23:12;;;;;;;9.85;4.07;;;;;;;;;;10365083;28;20080;-84
2021/06/23 06:28:14;;;;;;;9.98;3.72;;;;;;;;;;10364806;28;20129;-83
2021/06/23 06:33:16;;;;;;;13.30;4.40;;;;;;;;;;10365806;28;20453;-83
2021/06/23 06:38:17;;;;;;;13.35;4.00;;;;;;;;;;10370879;28;20092;-83
2021/06/23 06:43:19;;;;;;;12.77;4.00;;;;;;;;;;10377055;28;20053;-84
2021/06/23 06:48:21;;;;;;;13.15;4.45;;;;;;;;;;10370600;28;20053;-84
2021/06/23 06:53:24;;;;;;;12.00;4.78;;;;;;;;;;10370284;28;20061;-85
2021/06/23 06:58:25;;;;;;;11.05;3.92;;;;;;;;;;10348246;28;20738;-85
2021/06/23 07:03:29;;;;;;;11.20;3.72;;;;;;;;;;10352669;28;20162;-84
2021/06/23 07:08:32;;;;;;;9.05;3.92;;;;;;;;;;10337973;28;20054;-85
2021/06/23 07:13:36;;;;;;;10.98;3.72;;;;;;;;;;10365847;28;20054;-85
2021/06/23 07:18:37;;;;;;;9.90;3.90;;;;;;;;;;10369077;28;20100;-86
2021/06/23 07:23:39;;;;;;;8.73;3.80;;;;;;;;;;10369099;28;20098;-84
2021/06/23 07:28:53;;;;;;;8.73;3.60;;;;;;;;;;10367339;28;20050;-84
2021/06/23 07:34:14;;;;;;;8.88;3.80;;;;;;;;;;10354228;28;20077;-85
2021/06/23 07:39:25;;;;;;;12.57;4.35;;;;;;;;;;10368956;28;20112;-84
2021/06/23 07:44:32;;;;;;;8.15;3.88;;;;;;;;;;10365894;28;20073;-84
2021/06/23 07:49:36;;;;;;;10.25;4.30;;;;;;;;;;10343857;28;20137;-84
2021/06/23 08:10:30;;;;;;;9.70;4.30;;;;;;;;;;10358016;28;20511;-85
2021/06/23 08:15:34;;;;;;;9.63;4.00;;;;;;;;;;10327463;28;20073;-85
2021/06/23 08:20:36;;;;;;;7.40;4.00;;;;;;;;;;10357268;28;20089;-86
2021/06/23 08:25:38;;;;;;;9.70;3.60;;;;;;;;;;10351370;28;20058;-86
2021/06/23 08:30:40;;;;;;;8.90;3.70;;;;;;;;;;10365549;28;20057;-86
2021/06/23 08:35:42;;;;;;;10.70;4.18;;;;;;;;;;10362871;28;20487;-83
2021/06/23 08:40:45;;;;;;;9.70;3.65;;;;;;;;;;10365772;28;20104;-83
2021/06/23 08:45:46;;;;;;;7.15;3.95;;;;;;;;;;10355034;28;20085;-81
2021/06/23 08:50:48;;;;;;;11.75;3.83;;;;;;;;;;10356966;28;20440;-80
2021/06/23 08:55:50;;;;;;;8.35;3.30;;;;;;;;;;10362914;28;20050;-80
2021/06/23 09:00:53;;;;;;;6.80;2.78;;;;;;;;;;10361737;28;20045;-80
2021/06/23 09:05:55;;;;;;;7.75;3.03;;;;;;;;;;10346523;28;20050;-83
2021/06/23 09:10:58;;;;;;;7.53;3.20;;;;;;;;;;10365492;28;20093;-81
2021/06/23 09:16:01;;;;;;;6.25;3.35;;;;;;;;;;10375937;28;20057;-80
2021/06/23 09:21:13;;;;;;;6.88;3.30;;;;;;;;;;10367007;28;20173;-80
2021/06/23 09:26:15;;;;;;;6.32;3.20;;;;;;;;;;10359343;28;20081;-81
2021/06/23 09:31:16;;;;;;;6.95;2.70;;;;;;;;;;10342798;28;20133;-81
2021/06/23 09:36:18;;;;;;;4.93;2.50;;;;;;;;;;10353616;28;20088;-83
2021/06/23 09:41:37;;;;;;;4.55;2.10;;;;;;;;;;10362647;28;20045;-81
2021/06/23 09:46:43;;;;;;;4.45;2.30;;;;;;;;;;10363887;28;20046;-82
2021/06/23 09:51:45;;;;;;;5.53;2.20;;;;;;;;;;10362579;28;20057;-82
2021/06/23 09:56:47;;;;;;;4.60;2.42;;;;;;;;;;10364767;28;20054;-82
2021/06/23 10:01:48;;;;;;;5.95;2.30;;;;;;;;;;10361706;28;20077;-82
2021/06/23 10:06:50;;;;;;;6.55;2.30;;;;;;;;;;10357718;28;20046;-82
2021/06/23 10:11:53;;;;;;;4.05;2.30;;;;;;;;;;10352942;28;20046;-82
2021/06/23 10:16:55;;;;;;;5.30;2.30;;;;;;;;;;10335685;28;21968;-83
2021/06/23 10:22:00;;;;;;;5.40;2.45;;;;;;;;;;10359302;28;20511;-82
2021/06/23 10:27:14;;;;;;;6.68;2.50;;;;;;;;;;10365220;28;20140;-82
2021/06/23 10:32:16;;;;;;;4.63;2.40;;;;;;;;;;10361832;28;20585;-82
2021/06/23 10:37:19;;;;;;;4.82;1.85;;;;;;;;;;10368785;28;20081;-82
2021/06/23 10:42:25;;;;;;;4.35;2.30;;;;;;;;;;10348289;28;20054;-81
2021/06/23 10:47:30;;;;;;;4.22;2.50;;;;;;;;;;10357094;28;20779;-81
2021/06/23 10:52:32;;;;;;;5.65;2.17;;;;;;;;;;10369050;28;20091;-81
2021/06/23 10:57:40;;;;;;;4.18;2.20;;;;;;;;;;10368061;28;20088;-80
2021/06/23 11:02:42;;;;;;;4.15;2.10;;;;;;;;;;10363746;28;20076;-81
2021/06/23 11:07:44;;;;;;;7.18;2.35;;;;;;;;;;10342775;28;20512;-81
2021/06/23 11:12:47;;;;;;;5.07;2.40;;;;;;;;;;10355950;28;20571;-81
2021/06/23 11:17:51;;;;;;;4.90;2.60;;;;;;;;;;10349481;28;20089;-81
2021/06/23 11:22:54;;;;;;;7.60;2.60;;;;;;;;;;10364174;28;20054;-80
2021/06/23 11:28:09;;;;;;;6.28;2.95;;;;;;;;;;10339344;28;20092;-80
2021/06/23 11:33:26;;;;;;;6.45;2.40;;;;;;;;;;10357572;28;20092;-81
2021/06/23 11:38:29;;;;;;;4.82;2.28;;;;;;;;;;10329537;28;20046;-80
2021/06/23 11:43:30;;;;;;;7.22;2.58;;;;;;;;;;10344440;28;20062;-80
2021/06/23 11:48:32;;;;;;;5.32;2.20;;;;;;;;;;10360723;28;20085;-81
2021/06/23 11:53:35;;;;;;;4.75;2.60;;;;;;;;;;10348311;28;20092;-80
2021/06/23 11:58:36;;;;;;;5.95;2.30;;;;;;;;;;10325719;28;20046;-80
2021/06/23 12:03:38;;;;;;;6.38;2.70;;;;;;;;;;10341800;28;20054;-81
2021/06/23 12:08:40;;;;;;;6.45;2.60;;;;;;;;;;10359702;28;20053;-80
2021/06/23 12:13:43;;;;;;;5.93;2.50;;;;;;;;;;10337291;28;20650;-80
2021/06/23 12:18:47;;;;;;;7.00;2.40;;;;;;;;;;10349618;28;20125;-80
2021/06/23 12:23:49;;;;;;;7.80;2.75;;;;;;;;;;10348887;28;20120;-80
2021/06/23 12:28:50;;;;;;;5.55;2.22;;;;;;;;;;10340789;28;20468;-80
2021/06/23 12:33:52;;;;;;;7.35;2.40;;;;;;;;;;10348760;28;20119;-81
2021/06/23 12:38:54;;;;;;;4.57;2.63;;;;;;;;;;10354389;28;20631;-80
2021/06/23 12:43:56;;;;;;;6.63;3.08;;;;;;;;;;10337097;28;20089;-79
2021/06/23 12:48:58;;;;;;;7.32;2.83;;;;;;;;;;10329016;28;20054;-81
2021/06/23 12:53:59;;;;;;;5.20;2.95;;;;;;;;;;10330484;28;20050;-80
2021/06/23 12:59:03;;;;;;;5.88;2.80;;;;;;;;;;10351974;28;20061;-83
2021/06/23 13:04:05;;;;;;;10.02;3.30;;;;;;;;;;10332506;28;20384;-82
2021/06/23 13:09:06;;;;;;;6.63;3.20;;;;;;;;;;10357936;28;20078;-84
2021/06/23 13:14:08;;;;;;;8.73;3.70;;;;;;;;;;10340823;28;20093;-81
2021/06/23 13:19:10;;;;;;;10.07;3.42;;;;;;;;;;10336609;28;20050;-80
2021/06/23 13:24:11;;;;;;;7.45;3.45;;;;;;;;;;10343187;28;20512;-80
2021/06/23 13:29:13;;;;;;;8.07;4.00;;;;;;;;;;10353029;28;20069;-79
2021/06/23 13:34:15;;;;;;;9.23;3.53;;;;;;;;;;10356982;28;20133;-80
2021/06/23 13:39:16;;;;;;;7.70;4.13;;;;;;;;;;10344868;28;20161;-80
2021/06/23 13:44:18;;;;;;;9.35;4.63;;;;;;;;;;10345831;28;20139;-80
2021/06/23 13:49:19;;;;;;;6.28;3.75;;;;;;;;;;10340366;28;20105;-80
2021/06/23 13:54:22;;;;;;;6.30;4.15;;;;;;;;;;10345488;28;20081;-82
2021/06/23 13:59:24;;;;;;;8.35;4.05;;;;;;;;;;10350006;28;20076;-82
2021/06/23 14:04:26;;;;;;;7.20;3.90;;;;;;;;;;10342300;28;20495;-80
2021/06/23 14:09:27;;;;;;;7.68;3.95;;;;;;;;;;10333532;28;20077;-79
2021/06/23 14:14:29;;;;;;;4.65;3.20;;;;;;;;;;10337034;28;20108;-79
2021/06/23 14:19:30;;;;;;;6.93;3.40;;;;;;;;;;10339439;28;20105;-79
2021/06/23 14:24:33;;;;;;;7.10;3.75;;;;;;;;;;10347461;28;20914;-79
2021/06/23 14:29:38;;;;;;;5.95;3.97;;;;;;;;;;10353584;28;20133;-79
2021/06/23 14:34:40;;;;;;;8.20;3.97;;;;;;;;;;10339751;28;20058;-80
2021/06/23 14:39:41;;;;;;;6.65;3.50;;;;;;;;;;10340135;28;20074;-79
2021/06/23 14:44:43;;;;;;;8.27;4.00;;;;;;;;;;10354175;28;20103;-79
2021/06/23 14:49:45;;;;;;;6.20;3.92;;;;;;;;;;10329910;28;20078;-79
2021/06/23 14:54:47;;;;;;;7.22;3.60;;;;;;;;;;10357398;28;20085;-78
2021/06/23 14:59:48;;;;;;;6.88;4.22;;;;;;;;;;10343328;28;20086;-78
2021/06/23 15:04:53;;;;;;;9.43;4.53;;;;;;;;;;10339891;28;20038;-80
2021/06/23 15:09:57;;;;;;;8.15;4.65;;;;;;;;;;10340155;28;20106;-80
2021/06/23 15:14:58;;;;;;;9.05;5.10;;;;;;;;;;10351701;28;20129;-80
2021/06/23 15:20:00;;;;;;;19.77;8.52;;;;;;;;;;10346111;28;20047;-81
2021/06/23 15:25:02;;;;;;;17.77;10.13;;;;;;;;;;10359765;28;20100;-80
2021/06/23 15:30:07;;;;;;;17.40;12.70;;;;;;;;;;10344296;28;20078;-80
2021/06/23 15:35:09;;;;;;;17.92;13.10;;;;;;;;;;10329711;28;20085;-80
2021/06/23 15:40:11;;;;;;;19.30;15.43;;;;;;;;;;10343471;28;20057;-80
2021/06/23 15:45:14;;;;;;;51.10;27.45;;;;;;;;;;10338023;28;20050;-80
2021/06/23 15:50:15;;;;;;;44.88;27.00;;;;;;;;;;10347294;28;20128;-80
2021/06/23 15:55:17;;;;;;;52.83;32.35;;;;;;;;;;10338082;28;20089;-80
2021/06/23 16:00:19;;;;;;;48.65;30.63;;;;;;;;;;10334421;28;20133;-81
2021/06/23 16:05:27;;;;;;;34.60;28.42;;;;;;;;;;10343029;28;20491;-80
2021/06/23 16:10:28;;;;;;;30.42;26.08;;;;;;;;;;10347240;28;20529;-81
2021/06/23 16:15:31;;;;;;;21.60;16.90;;;;;;;;;;10339529;28;20491;-80
2021/06/23 16:20:33;;;;;;;15.68;11.10;;;;;;;;;;10347638;28;20064;-80
2021/06/23 16:25:35;;;;;;;11.77;10.00;;;;;;;;;;10338936;28;20085;-80
2021/06/23 16:30:38;;;;;;;15.68;12.25;;;;;;;;;;10338934;28;20456;-80
2021/06/23 16:35:40;;;;;;;18.35;15.60;;;;;;;;;;10335662;28;20077;-80
2021/06/23 16:40:42;;;;;;;12.55;9.68;;;;;;;;;;10347865;28;20482;-80
2021/06/23 16:45:43;;;;;;;10.05;5.78;;;;;;;;;;10365233;28;20631;-80
2021/06/23 16:50:45;;;;;;;8.70;6.00;;;;;;;;;;10364683;28;20446;-80
2021/06/23 16:55:53;;;;;;;10.32;6.13;;;;;;;;;;10353493;28;20129;-80
2021/06/23 17:00:55;;;;;;;10.45;6.13;;;;;;;;;;10364896;28;20061;-80
2021/06/23 17:05:57;;;;;;;6.93;4.85;;;;;;;;;;10364814;28;20077;-81
2021/06/23 17:10:59;;;;;;;7.75;5.40;;;;;;;;;;10356553;28;20050;-80
2021/06/23 17:16:01;;;;;;;6.70;5.47;;;;;;;;;;10362248;28;20077;-80
2021/06/23 17:21:04;;;;;;;8.93;6.20;;;;;;;;;;10353259;28;20053;-80
2021/06/23 17:26:23;;;;;;;7.80;5.97;;;;;;;;;;10364321;28;20053;-80
2021/06/23 17:31:25;;;;;;;9.65;6.47;;;;;;;;;;10363847;28;20112;-80
2021/06/23 17:36:27;;;;;;;9.85;6.80;;;;;;;;;;10362728;28;20147;-80
2021/06/23 17:41:28;;;;;;;8.70;6.75;;;;;;;;;;10351329;28;20180;-80
2021/06/23 17:46:30;;;;;;;8.60;6.07;;;;;;;;;;10363262;28;20046;-81
2021/06/23 17:51:32;;;;;;;9.25;6.13;;;;;;;;;;10361136;28;20085;-81
2021/06/23 17:56:35;;;;;;;8.75;6.30;;;;;;;;;;10363469;28;20108;-81
2021/06/23 18:01:36;;;;;;;10.48;6.30;;;;;;;;;;10361696;28;20054;-80
2021/06/23 18:06:38;;;;;;;8.40;6.25;;;;;;;;;;10362558;28;20048;-80
2021/06/23 18:11:40;;;;;;;11.73;7.13;;;;;;;;;;10358985;28;20599;-80
2021/06/23 18:16:41;;;;;;;10.20;6.78;;;;;;;;;;10333284;28;20120;-80
2021/06/23 18:21:44;;;;;;;12.38;6.90;;;;;;;;;;10333761;28;20038;-79
2021/06/23 18:26:45;;;;;;;9.00;6.60;;;;;;;;;;10328016;28;20050;-80
2021/06/23 18:31:47;;;;;;;18.38;7.50;;;;;;;;;;10326754;28;20062;-81
2021/06/23 18:36:49;;;;;;;10.93;6.60;;;;;;;;;;10350849;28;20534;-81
2021/06/23 18:41:51;;;;;;;14.13;6.38;;;;;;;;;;10367588;28;20046;-81
2021/06/23 18:46:53;;;;;;;9.63;6.03;;;;;;;;;;10366665;28;20080;-82
2021/06/23 18:51:55;;;;;;;9.00;6.50;;;;;;;;;;10366943;28;20061;-82
2021/06/23 18:56:57;;;;;;;15.75;6.45;;;;;;;;;;10367010;28;20085;-82
2021/06/23 19:01:59;;;;;;;8.20;6.40;;;;;;;;;;10366716;28;20133;-83
2021/06/23 19:07:01;;;;;;;9.57;5.50;;;;;;;;;;10366214;28;20054;-82
2021/06/23 19:12:02;;;;;;;10.27;5.40;;;;;;;;;;10363804;28;20136;-81
2021/06/23 19:17:04;;;;;;;9.35;5.10;;;;;;;;;;10365400;28;20077;-81
2021/06/23 19:22:11;;;;;;;8.77;5.95;;;;;;;;;;10362120;28;20051;-81
2021/06/23 19:27:13;;;;;;;9.73;6.00;;;;;;;;;;10356575;28;20403;-80
2021/06/23 19:32:16;;;;;;;7.88;4.85;;;;;;;;;;10363870;28;20876;-81
2021/06/23 19:37:17;;;;;;;6.90;5.00;;;;;;;;;;10365037;28;20132;-81
2021/06/23 19:42:21;;;;;;;13.27;5.30;;;;;;;;;;10363197;28;20080;-82
2021/06/23 19:47:31;;;;;;;9.02;5.93;;;;;;;;;;10366286;28;20052;-82
2021/06/23 19:52:33;;;;;;;8.55;5.53;;;;;;;;;;10364987;28;20144;-81
2021/06/23 19:57:35;;;;;;;11.60;5.65;;;;;;;;;;10364655;28;20511;-81
2021/06/23 20:02:37;;;;;;;10.10;5.90;;;;;;;;;;10363427;28;20133;-82
2021/06/23 20:07:39;;;;;;;9.80;5.28;;;;;;;;;;10360771;28;20140;-83
2021/06/23 20:12:40;;;;;;;9.90;5.97;;;;;;;;;;10365427;28;20054;-81
2021/06/23 20:17:42;;;;;;;9.40;6.15;;;;;;;;;;10364611;28;20131;-79
2021/06/23 20:22:44;;;;;;;12.43;6.80;;;;;;;;;;10365945;28;20516;-79
2021/06/23 20:27:46;;;;;;;15.73;6.57;;;;;;;;;;10363248;28;20468;-80
2021/06/23 20:32:48;;;;;;;11.05;6.88;;;;;;;;;;10365348;28;20487;-80
2021/06/23 20:37:49;;;;;;;11.18;6.32;;;;;;;;;;10366203;28;20046;-80
2021/06/23 20:42:54;;;;;;;9.63;6.70;;;;;;;;;;10366176;28;20499;-80
2021/06/23 20:47:56;;;;;;;15.20;6.20;;;;;;;;;;10364627;28;20104;-80
2021/06/23 20:52:58;;;;;;;10.10;7.28;;;;;;;;;;10365665;28;20188;-80
2021/06/23 20:58:00;;;;;;;13.45;7.97;;;;;;;;;;10365522;28;20077;-80
2021/06/23 21:03:02;;;;;;;12.73;7.50;;;;;;;;;;10364030;28;20561;-80
2021/06/23 21:08:05;;;;;;;12.65;8.05;;;;;;;;;;10365384;28;20046;-80
2021/06/23 21:13:07;;;;;;;11.70;7.63;;;;;;;;;;10363967;28;20395;-80
2021/06/23 21:18:10;;;;;;;18.45;7.82;;;;;;;;;;10366161;28;20082;-80
2021/06/23 21:23:23;;;;;;;13.30;7.32;;;;;;;;;;10366050;28;20057;-81
2021/06/23 21:28:26;;;;;;;13.95;7.43;;;;;;;;;;10364555;28;20056;-81
2021/06/23 21:33:29;;;;;;;11.00;7.82;;;;;;;;;;10364984;28;20096;-81
2021/06/23 21:38:50;;;;;;;14.40;7.95;;;;;;;;;;10363699;28;20046;-81
2021/06/23 21:43:52;;;;;;;15.10;9.30;;;;;;;;;;10363660;28;20085;-81
2021/06/23 21:48:54;;;;;;;14.52;7.93;;;;;;;;;;10364887;28;20104;-81
2021/06/23 21:53:55;;;;;;;13.07;8.07;;;;;;;;;;10364572;28;20089;-81
2021/06/23 21:58:58;;;;;;;12.85;7.90;;;;;;;;;;10364587;28;20081;-81
2021/06/23 22:03:59;;;;;;;15.57;9.05;;;;;;;;;;10364236;28;20437;-81
2021/06/23 22:09:02;;;;;;;11.70;7.95;;;;;;;;;;10369494;28;20080;-81
2021/06/23 22:14:07;;;;;;;13.90;8.05;;;;;;;;;;10371937;28;20519;-81
2021/06/23 22:19:10;;;;;;;15.23;9.25;;;;;;;;;;10372673;28;20132;-81
2021/06/23 22:24:11;;;;;;;13.85;9.45;;;;;;;;;;10371846;28;20089;-81
2021/06/23 22:29:13;;;;;;;14.48;8.52;;;;;;;;;;10377715;28;20089;-81
2021/06/23 22:34:15;;;;;;;14.43;9.05;;;;;;;;;;10372158;28;20128;-81
2021/06/23 22:39:18;;;;;;;13.32;8.57;;;;;;;;;;10372003;28;20084;-81
2021/06/23 22:44:19;;;;;;;11.05;7.97;;;;;;;;;;10371641;28;20050;-81
2021/06/23 22:49:28;;;;;;;13.00;9.05;;;;;;;;;;10371983;28;20073;-81
2021/06/23 22:54:34;;;;;;;11.95;8.25;;;;;;;;;;10370882;28;20132;-82
2021/06/23 22:59:36;;;;;;;11.60;8.88;;;;;;;;;;10370211;28;20577;-81
2021/06/23 23:04:43;;;;;;;15.63;10.60;;;;;;;;;;10370902;28;20089;-81
2021/06/23 23:09:44;;;;;;;16.48;10.52;;;;;;;;;;10371431;28;20120;-80
2021/06/23 23:14:46;;;;;;;11.40;8.60;;;;;;;;;;10370023;28;20088;-81
2021/06/23 23:19:48;;;;;;;14.63;9.50;;;;;;;;;;10368646;28;20045;-81
2021/06/23 23:24:49;;;;;;;12.90;10.07;;;;;;;;;;10368294;28;20385;-81
2021/06/23 23:29:51;;;;;;;16.45;11.13;;;;;;;;;;10368681;28;20533;-81
2021/06/23 23:34:52;;;;;;;18.33;11.07;;;;;;;;;;10370056;28;20085;-81
2021/06/23 23:39:54;;;;;;;21.50;11.32;;;;;;;;;;10368726;28;20124;-81
2021/06/23 23:44:55;;;;;;;21.17;11.90;;;;;;;;;;10369479;28;20076;-81
2021/06/23 23:49:57;;;;;;;19.73;9.25;;;;;;;;;;10369249;28;20054;-80
2021/06/23 23:54:58;;;;;;;13.73;9.95;;;;;;;;;;10369106;28;20058;-81
